Time;durP1;ratioP1;P1;durP2;ratioP2;P2;SDS_P1;SDS_P2;PMS_P1;PMS_P2;Temp;Humidity;BMP_temperature;BMP_pressure;BME280_temperature;BME280_humidity;BME280_pressure;Samples;Min_cycle;Max_cycle;Signal;HPM_P1;HPM_P2
2022/11/15 00:02:00;;;;;;;;;;;8.20;68.90;;;;;;5046143;28;82853;-38
2022/11/15 00:04:26;;;;;;;;;;;8.20;68.80;;;;;;5046119;28;81916;-38
2022/11/15 00:06:51;;;;;;;;;;;8.10;68.90;;;;;;5045962;28;82549;-38
2022/11/15 00:09:17;;;;;;;;;;;8.10;68.90;;;;;;5045936;28;82031;-38
2022/11/15 00:11:42;;;;;;;;;;;8.10;69.00;;;;;;5046187;28;81780;-38
2022/11/15 00:14:08;;;;;;;;;;;8.10;68.90;;;;;;5045923;27;82605;-38
2022/11/15 00:16:33;;;;;;;;;;;8.10;68.90;;;;;;5045499;28;83359;-38
2022/11/15 00:18:59;;;;;;;;;;;8.10;68.90;;;;;;5047976;28;82973;-38
2022/11/15 00:21:24;;;;;;;;;;;8.10;69.00;;;;;;5045698;28;82944;-38
2022/11/15 00:23:50;;;;;;;;;;;8.10;68.90;;;;;;5045792;28;82065;-38
2022/11/15 00:26:15;;;;;;;;;;;8.10;68.90;;;;;;5045710;28;82534;-38
2022/11/15 00:28:41;;;;;;;;;;;8.10;68.80;;;;;;5045320;28;83041;-38
2022/11/15 00:31:08;;;;;;;;;;;8.10;68.80;;;;;;5045853;28;82373;-38
2022/11/15 00:33:34;;;;;;;;;;;8.10;68.90;;;;;;5045643;27;82532;-38
2022/11/15 00:36:04;;;;;;;;;;;8.10;68.80;;;;;;5045663;28;83581;-38
2022/11/15 00:38:33;;;;;;;;;;;8.10;68.80;;;;;;5045478;28;81971;-38
2022/11/15 00:40:59;;;;;;;;;;;8.10;68.80;;;;;;5047859;28;82391;-38
2022/11/15 00:43:24;;;;;;;;;;;8.00;68.70;;;;;;5044846;28;83828;-38
2022/11/15 00:45:50;;;;;;;;;;;8.00;68.70;;;;;;5045262;28;83463;-38
2022/11/15 00:48:15;;;;;;;;;;;8.00;68.70;;;;;;5045079;28;83028;-38
2022/11/15 00:50:40;;;;;;;;;;;8.10;68.70;;;;;;5045476;28;81959;-38
2022/11/15 00:53:06;;;;;;;;;;;8.00;68.80;;;;;;5045503;28;82512;-38
2022/11/15 00:55:31;;;;;;;;;;;8.00;68.80;;;;;;5045319;28;83259;-38
2022/11/15 00:57:57;;;;;;;;;;;7.90;68.80;;;;;;5045187;28;82080;-38
2022/11/15 01:00:22;;;;;;;;;;;8.00;68.90;;;;;;5045885;28;82598;-38
2022/11/15 01:02:48;;;;;;;;;;;7.90;68.80;;;;;;5047850;28;83158;-38
2022/11/15 01:05:13;;;;;;;;;;;7.90;68.80;;;;;;5045000;28;83587;-38
2022/11/15 01:07:39;;;;;;;;;;;7.90;68.70;;;;;;5044334;28;84734;-38
2022/11/15 01:10:05;;;;;;;;;;;7.90;68.80;;;;;;5047384;27;82185;-38
2022/11/15 01:12:30;;;;;;;;;;;7.90;68.80;;;;;;5048443;28;82027;-38
2022/11/15 01:14:56;;;;;;;;;;;7.90;68.70;;;;;;5048220;28;83024;-38
2022/11/15 01:17:21;;;;;;;;;;;7.90;68.60;;;;;;5048680;28;81915;-38
2022/11/15 01:19:47;;;;;;;;;;;7.90;68.70;;;;;;5048629;28;81830;-38
2022/11/15 01:22:12;;;;;;;;;;;7.90;68.50;;;;;;5048295;28;82897;-38
2022/11/15 01:24:38;;;;;;;;;;;7.90;68.60;;;;;;5051499;28;81254;-38
2022/11/15 01:27:03;;;;;;;;;;;7.80;68.60;;;;;;5047794;28;82143;-38
2022/11/15 01:29:29;;;;;;;;;;;7.80;68.70;;;;;;5048412;28;82090;-38
2022/11/15 01:31:54;;;;;;;;;;;7.80;68.70;;;;;;5047770;28;82891;-38
2022/11/15 01:34:20;;;;;;;;;;;7.80;68.60;;;;;;5047823;28;84266;-38
2022/11/15 01:36:45;;;;;;;;;;;7.80;68.60;;;;;;5048363;28;81885;-38
2022/11/15 01:39:11;;;;;;;;;;;7.80;68.60;;;;;;5048275;27;82372;-38
2022/11/15 01:41:36;;;;;;;;;;;7.80;68.60;;;;;;5047919;28;83121;-38
2022/11/15 01:44:20;;;;;;;;;;;7.80;69.10;;;;;;5050389;28;83644;-37
2022/11/15 01:46:47;;;;;;;;;;;7.80;68.50;;;;;;5047946;27;83008;-38
2022/11/15 01:49:15;;;;;;;;;;;7.80;68.50;;;;;;5048504;28;81331;-38
2022/11/15 01:51:40;;;;;;;;;;;7.70;68.60;;;;;;5048181;28;81847;-38
2022/11/15 01:54:08;;;;;;;;;;;7.80;68.60;;;;;;5047725;28;82249;-38
2022/11/15 01:56:37;;;;;;;;;;;7.70;68.50;;;;;;5047197;28;83021;-38
2022/11/15 01:59:06;;;;;;;;;;;7.80;68.50;;;;;;5047808;27;83047;-38
2022/11/15 02:01:32;;;;;;;;;;;7.70;68.50;;;;;;5047623;28;82983;-38
2022/11/15 02:03:59;;;;;;;;;;;7.70;68.40;;;;;;5047579;28;82046;-38
2022/11/15 02:06:25;;;;;;;;;;;7.70;68.50;;;;;;5050431;28;81854;-38
2022/11/15 02:08:50;;;;;;;;;;;7.70;68.50;;;;;;5047668;28;82118;-38
2022/11/15 02:11:16;;;;;;;;;;;7.70;68.50;;;;;;5047471;27;83745;-38
2022/11/15 02:13:42;;;;;;;;;;;7.60;68.60;;;;;;5047716;28;81425;-38
2022/11/15 02:16:31;;;;;;;;;;;7.70;68.50;;;;;;5047700;28;82166;-38
2022/11/15 02:19:02;;;;;;;;;;;7.70;68.40;;;;;;5047740;28;82434;-38
2022/11/15 02:21:46;;;;;;;;;;;7.70;68.40;;;;;;5046711;27;84201;-38
2022/11/15 02:24:24;;;;;;;;;;;7.60;68.50;;;;;;5047668;27;82090;-38
2022/11/15 02:27:02;;;;;;;;;;;7.70;68.40;;;;;;5047320;27;83517;-38
2022/11/15 02:29:37;;;;;;;;;;;7.60;68.50;;;;;;5050209;28;82566;-38
2022/11/15 02:32:20;;;;;;;;;;;7.60;68.60;;;;;;5047296;27;81984;-38
2022/11/15 02:34:46;;;;;;;;;;;7.60;68.40;;;;;;5047297;28;82930;-38
2022/11/15 02:37:15;;;;;;;;;;;7.60;68.30;;;;;;5047311;28;82047;-38
2022/11/15 02:39:45;;;;;;;;;;;7.60;68.40;;;;;;5047678;27;82486;-38
2022/11/15 02:45:03;;;;;;;;;;;7.60;68.30;;;;;;5046736;28;81939;-38
2022/11/15 02:47:29;;;;;;;;;;;7.50;68.30;;;;;;5046435;27;84170;-38
2022/11/15 02:49:57;;;;;;;;;;;7.50;68.40;;;;;;5046753;28;83161;-38
2022/11/15 02:52:27;;;;;;;;;;;7.50;68.40;;;;;;5049738;28;82144;-38
2022/11/15 02:54:54;;;;;;;;;;;7.50;68.30;;;;;;5046471;28;84002;-38
2022/11/15 02:57:23;;;;;;;;;;;7.50;68.30;;;;;;5046656;28;82133;-38
2022/11/15 02:59:49;;;;;;;;;;;7.50;68.30;;;;;;5046799;28;82230;-38
2022/11/15 03:02:14;;;;;;;;;;;7.50;68.20;;;;;;5046764;28;83131;-38
2022/11/15 03:05:04;;;;;;;;;;;7.50;68.30;;;;;;5047439;28;81253;-38
2022/11/15 03:07:37;;;;;;;;;;;7.40;68.20;;;;;;5046777;28;81983;-38
2022/11/15 03:10:12;;;;;;;;;;;7.50;68.30;;;;;;5046825;28;82880;-38
2022/11/15 03:12:47;;;;;;;;;;;7.40;68.40;;;;;;5046186;28;82912;-38
2022/11/15 03:15:18;;;;;;;;;;;7.40;68.30;;;;;;5048951;27;83267;-38
2022/11/15 03:18:04;;;;;;;;;;;7.40;68.40;;;;;;5046476;28;82090;-38
2022/11/15 03:20:30;;;;;;;;;;;7.40;68.30;;;;;;5046780;27;82343;-38
2022/11/15 03:23:00;;;;;;;;;;;7.40;68.30;;;;;;5046544;28;82962;-38
2022/11/15 03:25:26;;;;;;;;;;;7.40;68.30;;;;;;5046147;28;82063;-38
2022/11/15 03:27:53;;;;;;;;;;;7.40;68.20;;;;;;5046297;27;84357;-37
2022/11/15 03:30:19;;;;;;;;;;;7.40;68.20;;;;;;5046702;28;81367;-37
2022/11/15 03:32:46;;;;;;;;;;;7.40;68.30;;;;;;5045583;27;82132;-38
2022/11/15 03:35:13;;;;;;;;;;;7.30;68.40;;;;;;5048753;27;81965;-38
2022/11/15 03:37:39;;;;;;;;;;;7.30;68.20;;;;;;5045706;28;82995;-38
2022/11/15 03:40:05;;;;;;;;;;;7.40;68.20;;;;;;5044700;28;86511;-38
2022/11/15 03:42:34;;;;;;;;;;;7.30;68.20;;;;;;5046146;28;83543;-38
2022/11/15 03:44:59;;;;;;;;;;;7.30;68.20;;;;;;5045655;28;81950;-38
2022/11/15 03:47:28;;;;;;;;;;;7.30;68.20;;;;;;5046338;28;82034;-38
2022/11/15 03:49:58;;;;;;;;;;;7.30;68.10;;;;;;5045810;28;82394;-38
2022/11/15 03:52:23;;;;;;;;;;;7.30;68.10;;;;;;5045961;28;81851;-38
2022/11/15 03:54:50;;;;;;;;;;;7.30;68.10;;;;;;5046726;27;82378;-38
2022/11/15 03:57:16;;;;;;;;;;;7.30;68.10;;;;;;5048823;28;83025;-38
2022/11/15 03:59:41;;;;;;;;;;;7.30;68.10;;;;;;5045711;27;82284;-38
2022/11/15 04:02:07;;;;;;;;;;;7.20;68.10;;;;;;5045322;28;83548;-38
2022/11/15 04:04:32;;;;;;;;;;;7.20;68.10;;;;;;5045980;28;82129;-38
2022/11/15 04:06:58;;;;;;;;;;;7.20;68.10;;;;;;5045868;28;82380;-38
2022/11/15 04:09:23;;;;;;;;;;;7.20;68.10;;;;;;5045966;28;82165;-38
2022/11/15 04:11:49;;;;;;;;;;;7.20;68.10;;;;;;5046055;28;82390;-38
2022/11/15 04:14:14;;;;;;;;;;;7.20;68.10;;;;;;5045485;28;82313;-38
2022/11/15 04:16:40;;;;;;;;;;;7.20;68.00;;;;;;5045692;28;83026;-38
2022/11/15 04:24:33;;;;;;;;;;;7.10;68.10;;;;;;5045922;28;81773;-38
2022/11/15 04:26:59;;;;;;;;;;;7.10;68.00;;;;;;5044929;28;82839;-38
2022/11/15 04:29:34;;;;;;;;;;;7.10;68.20;;;;;;5045527;28;83095;-38
2022/11/15 04:32:00;;;;;;;;;;;7.10;68.00;;;;;;5045764;28;81960;-38
2022/11/15 04:34:26;;;;;;;;;;;7.10;68.00;;;;;;5045754;27;82029;-38
2022/11/15 04:39:35;;;;;;;;;;;7.10;67.90;;;;;;5045714;28;81931;-38
2022/11/15 04:42:01;;;;;;;;;;;7.10;67.90;;;;;;5048077;28;82454;-38
2022/11/15 04:44:26;;;;;;;;;;;7.00;68.00;;;;;;5046862;27;81351;-38
2022/11/15 04:46:52;;;;;;;;;;;7.00;68.00;;;;;;5049206;28;82032;-38
2022/11/15 04:49:17;;;;;;;;;;;7.00;68.00;;;;;;5048790;28;82939;-38
2022/11/15 04:51:43;;;;;;;;;;;7.00;68.00;;;;;;5048396;28;82781;-38
2022/11/15 04:54:08;;;;;;;;;;;7.00;68.10;;;;;;5048905;27;83306;-38
2022/11/15 04:56:34;;;;;;;;;;;7.00;67.90;;;;;;5048771;28;83056;-38
2022/11/15 04:58:59;;;;;;;;;;;7.00;67.90;;;;;;5048730;28;82020;-38
2022/11/15 05:01:25;;;;;;;;;;;7.00;67.80;;;;;;5048922;28;82708;-38
2022/11/15 05:06:34;;;;;;;;;;;6.90;68.00;;;;;;5048388;28;81945;-37
2022/11/15 05:09:00;;;;;;;;;;;7.00;68.00;;;;;;5048985;28;82035;-37
2022/11/15 05:11:27;;;;;;;;;;;6.90;68.00;;;;;;5048747;28;81844;-38
2022/11/15 05:13:53;;;;;;;;;;;6.90;68.00;;;;;;5048853;28;82608;-38
2022/11/15 05:16:18;;;;;;;;;;;6.90;68.10;;;;;;5047724;28;83689;-38
2022/11/15 05:18:44;;;;;;;;;;;6.90;67.90;;;;;;5048713;28;82100;-38
2022/11/15 05:21:10;;;;;;;;;;;6.90;68.00;;;;;;5048307;27;82829;-38
2022/11/15 05:23:36;;;;;;;;;;;6.90;68.50;;;;;;5048270;28;82966;-38
2022/11/15 05:26:03;;;;;;;;;;;6.90;67.90;;;;;;5050834;28;81996;-38
2022/11/15 05:28:28;;;;;;;;;;;6.90;67.90;;;;;;5048087;28;83240;-38
2022/11/15 05:31:00;;;;;;;;;;;6.80;68.00;;;;;;5048451;28;82025;-38
2022/11/15 05:33:26;;;;;;;;;;;6.80;67.90;;;;;;5048945;28;82453;-38
2022/11/15 05:35:56;;;;;;;;;;;6.80;67.90;;;;;;5047955;28;83222;-38
2022/11/15 05:38:23;;;;;;;;;;;6.80;67.90;;;;;;5048034;28;82070;-38
2022/11/15 05:40:48;;;;;;;;;;;6.80;68.00;;;;;;5047596;28;82797;-38
2022/11/15 05:43:14;;;;;;;;;;;6.80;68.00;;;;;;5047920;28;83526;-38
2022/11/15 05:45:39;;;;;;;;;;;6.80;67.90;;;;;;5050720;28;82023;-38
2022/11/15 05:48:06;;;;;;;;;;;6.80;67.80;;;;;;5047834;28;82892;-38
2022/11/15 05:50:32;;;;;;;;;;;6.80;67.90;;;;;;5048063;28;82129;-38
2022/11/15 05:52:57;;;;;;;;;;;6.80;67.90;;;;;;5048010;28;82181;-38
2022/11/15 05:55:23;;;;;;;;;;;6.80;67.90;;;;;;5047445;27;82090;-38
2022/11/15 05:57:49;;;;;;;;;;;6.80;67.90;;;;;;5048305;28;81740;-38
2022/11/15 06:00:14;;;;;;;;;;;6.70;67.90;;;;;;5048070;27;81960;-38
2022/11/15 06:02:40;;;;;;;;;;;6.70;67.90;;;;;;5047904;28;82309;-38
2022/11/15 06:05:05;;;;;;;;;;;6.70;67.90;;;;;;5047033;28;83018;-38
2022/11/15 06:07:31;;;;;;;;;;;6.70;67.70;;;;;;5050021;27;85366;-38
2022/11/15 06:09:56;;;;;;;;;;;6.70;67.90;;;;;;5047934;28;82006;-38
2022/11/15 06:12:22;;;;;;;;;;;6.70;67.70;;;;;;5047780;28;82410;-38
2022/11/15 06:14:47;;;;;;;;;;;6.70;67.80;;;;;;5047322;28;83628;-37
2022/11/15 06:17:13;;;;;;;;;;;6.70;67.80;;;;;;5047438;28;82078;-37
2022/11/15 06:19:38;;;;;;;;;;;6.70;67.80;;;;;;5047366;28;82335;-37
2022/11/15 06:22:04;;;;;;;;;;;6.70;67.70;;;;;;5047925;28;82385;-37
2022/11/15 06:24:29;;;;;;;;;;;6.70;67.70;;;;;;5047599;28;82126;-38
2022/11/15 06:26:55;;;;;;;;;;;6.70;67.70;;;;;;5047415;28;82448;-38
2022/11/15 06:29:20;;;;;;;;;;;6.60;67.90;;;;;;5049245;28;84491;-38
2022/11/15 06:31:46;;;;;;;;;;;6.60;67.90;;;;;;5047353;28;83350;-38
2022/11/15 06:34:11;;;;;;;;;;;6.60;67.90;;;;;;5047232;28;83075;-38
2022/11/15 06:36:37;;;;;;;;;;;6.60;68.00;;;;;;5047083;28;82155;-38
2022/11/15 06:39:03;;;;;;;;;;;6.50;68.00;;;;;;5047244;27;82471;-38
2022/11/15 06:41:29;;;;;;;;;;;6.60;68.00;;;;;;5047072;28;83000;-38
2022/11/15 06:43:54;;;;;;;;;;;6.60;67.90;;;;;;5046528;28;82139;-38
2022/11/15 06:46:20;;;;;;;;;;;6.60;67.80;;;;;;5047775;28;82336;-38
2022/11/15 06:48:45;;;;;;;;;;;6.60;67.90;;;;;;5047020;28;83156;-38
2022/11/15 06:51:11;;;;;;;;;;;6.60;67.90;;;;;;5049652;28;82142;-38
2022/11/15 06:53:36;;;;;;;;;;;6.60;68.00;;;;;;5046119;28;83949;-38
2022/11/15 06:56:03;;;;;;;;;;;6.50;68.00;;;;;;5047058;28;82014;-38
2022/11/15 06:58:28;;;;;;;;;;;6.50;68.00;;;;;;5047155;27;82540;-38
2022/11/15 07:00:57;;;;;;;;;;;6.60;67.90;;;;;;5046650;28;83458;-38
2022/11/15 07:03:23;;;;;;;;;;;6.60;67.90;;;;;;5046724;28;81925;-38
2022/11/15 07:05:53;;;;;;;;;;;6.60;67.90;;;;;;5046604;28;82398;-38
2022/11/15 07:08:19;;;;;;;;;;;6.60;68.00;;;;;;5045569;28;82955;-38
2022/11/15 07:10:44;;;;;;;;;;;6.60;67.80;;;;;;5047355;28;81304;-38
2022/11/15 07:13:10;;;;;;;;;;;6.60;67.80;;;;;;5049309;28;81969;-38
2022/11/15 07:15:35;;;;;;;;;;;6.60;67.90;;;;;;5046677;28;81950;-38
2022/11/15 07:18:01;;;;;;;;;;;6.60;67.80;;;;;;5046154;28;82884;-38
2022/11/15 07:20:26;;;;;;;;;;;6.60;67.80;;;;;;5046279;28;82968;-38
2022/11/15 07:22:58;;;;;;;;;;;6.50;68.00;;;;;;5046510;28;82063;-38
2022/11/15 07:25:24;;;;;;;;;;;6.60;68.00;;;;;;5046549;28;82449;-38
2022/11/15 07:27:56;;;;;;;;;;;6.60;68.00;;;;;;5046201;28;83026;-38
2022/11/15 07:30:21;;;;;;;;;;;6.60;68.00;;;;;;5046272;28;81998;-38
2022/11/15 07:32:47;;;;;;;;;;;6.50;68.10;;;;;;5046565;28;82374;-38
2022/11/15 07:35:12;;;;;;;;;;;6.50;68.20;;;;;;5049289;28;82434;-38
2022/11/15 07:37:38;;;;;;;;;;;6.50;68.10;;;;;;5046665;28;81905;-38
2022/11/15 07:40:03;;;;;;;;;;;6.50;68.10;;;;;;5046196;28;82848;-38
2022/11/15 07:45:15;;;;;;;;;;;6.50;68.40;;;;;;5045860;28;82590;-38
2022/11/15 07:47:40;;;;;;;;;;;6.50;68.30;;;;;;5045817;28;82144;-38
2022/11/15 07:50:06;;;;;;;;;;;6.50;68.50;;;;;;5046308;28;82097;-38
2022/11/15 07:52:31;;;;;;;;;;;6.40;68.50;;;;;;5046319;27;82218;-38
2022/11/15 07:54:57;;;;;;;;;;;6.40;68.60;;;;;;5048652;28;82997;-39
2022/11/15 07:57:22;;;;;;;;;;;6.40;68.70;;;;;;5046249;28;81935;-38
2022/11/15 07:59:48;;;;;;;;;;;6.40;68.70;;;;;;5046378;28;82347;-38
2022/11/15 08:02:16;;;;;;;;;;;6.40;68.60;;;;;;5046056;28;82090;-38
2022/11/15 08:04:41;;;;;;;;;;;6.40;68.60;;;;;;5045877;27;84018;-37
2022/11/15 08:07:06;;;;;;;;;;;6.40;68.80;;;;;;5044875;28;84727;-37
2022/11/15 08:09:32;;;;;;;;;;;6.40;68.80;;;;;;5046170;28;82184;-37
2022/11/15 08:11:57;;;;;;;;;;;6.30;68.80;;;;;;5045828;28;83116;-37
2022/11/15 08:14:23;;;;;;;;;;;6.30;68.80;;;;;;5045847;28;82932;-37
2022/11/15 08:16:48;;;;;;;;;;;6.40;68.80;;;;;;5048118;28;82059;-38
2022/11/15 08:19:14;;;;;;;;;;;6.40;68.90;;;;;;5048255;27;82898;-38
2022/11/15 08:21:39;;;;;;;;;;;6.40;68.90;;;;;;5049517;28;81853;-37
2022/11/15 08:24:05;;;;;;;;;;;6.40;68.80;;;;;;5049952;28;82453;-38
2022/11/15 08:26:31;;;;;;;;;;;6.40;68.80;;;;;;5049319;28;82980;-38
2022/11/15 08:28:56;;;;;;;;;;;6.40;68.80;;;;;;5049313;28;82149;-37
2022/11/15 08:31:22;;;;;;;;;;;6.40;68.90;;;;;;5048460;27;83968;-37
2022/11/15 08:33:47;;;;;;;;;;;6.40;68.80;;;;;;5049030;28;82775;-38
2022/11/15 08:36:14;;;;;;;;;;;6.40;69.00;;;;;;5049075;28;81996;-38
2022/11/15 08:38:40;;;;;;;;;;;6.40;68.80;;;;;;5051836;27;82499;-38
2022/11/15 08:41:06;;;;;;;;;;;6.40;69.00;;;;;;5049330;28;81988;-38
2022/11/15 08:43:31;;;;;;;;;;;6.40;68.90;;;;;;5049021;27;82936;-37
2022/11/15 08:45:57;;;;;;;;;;;6.40;68.80;;;;;;5044804;28;87914;-38
2022/11/15 08:48:23;;;;;;;;;;;6.50;68.70;;;;;;5046033;28;86338;-38
2022/11/15 08:50:48;;;;;;;;;;;6.40;68.90;;;;;;5045728;27;86751;-38
2022/11/15 08:53:13;;;;;;;;;;;6.40;68.90;;;;;;5045316;28;88096;-38
2022/11/15 08:55:39;;;;;;;;;;;6.40;68.90;;;;;;5044961;28;88065;-38
2022/11/15 08:58:05;;;;;;;;;;;6.40;68.90;;;;;;5045485;28;88391;-38
2022/11/15 09:00:31;;;;;;;;;;;6.40;69.00;;;;;;5048096;28;88046;-38
2022/11/15 09:02:56;;;;;;;;;;;6.40;69.20;;;;;;5045338;27;88890;-37
2022/11/15 09:05:22;;;;;;;;;;;6.40;69.10;;;;;;5045100;28;87953;-38
2022/11/15 09:07:52;;;;;;;;;;;6.40;69.10;;;;;;5045400;28;87164;-38
2022/11/15 09:10:17;;;;;;;;;;;6.40;69.10;;;;;;5045063;28;87146;-38
2022/11/15 09:12:43;;;;;;;;;;;6.40;69.20;;;;;;5045469;28;86746;-38
2022/11/15 09:15:09;;;;;;;;;;;6.40;69.10;;;;;;5045155;28;87599;-38
2022/11/15 09:17:34;;;;;;;;;;;6.40;69.20;;;;;;5044815;27;88926;-38
2022/11/15 09:20:00;;;;;;;;;;;6.40;69.20;;;;;;5044356;28;88984;-38
2022/11/15 09:22:25;;;;;;;;;;;6.50;69.30;;;;;;5048072;28;87093;-38
2022/11/15 09:24:51;;;;;;;;;;;6.40;69.30;;;;;;5044752;28;88014;-38
2022/11/15 09:27:16;;;;;;;;;;;6.40;69.30;;;;;;5044797;28;87106;-38
2022/11/15 09:29:42;;;;;;;;;;;6.40;69.20;;;;;;5044512;28;88248;-38
2022/11/15 09:32:07;;;;;;;;;;;6.40;69.30;;;;;;5044620;28;87416;-38
2022/11/15 09:34:33;;;;;;;;;;;6.40;69.50;;;;;;5044839;28;87180;-38
2022/11/15 09:36:58;;;;;;;;;;;6.40;69.30;;;;;;5045295;27;87359;-38
2022/11/15 09:39:24;;;;;;;;;;;6.50;69.40;;;;;;5044312;28;89483;-38
2022/11/15 09:42:21;;;;;;;;;;;6.50;69.60;;;;;;5044503;28;87015;-38
2022/11/15 09:45:05;;;;;;;;;;;6.60;69.40;;;;;;5022408;27;88010;-38
2022/11/15 09:47:34;;;;;;;;;;;6.60;69.30;;;;;;5044742;27;87051;-38
2022/11/15 09:50:00;;;;;;;;;;;6.60;69.90;;;;;;5044880;28;87418;-38
2022/11/15 09:52:27;;;;;;;;;;;6.60;69.90;;;;;;5044258;28;88071;-38
2022/11/15 09:54:52;;;;;;;;;;;6.60;69.80;;;;;;5044576;28;87062;-37
2022/11/15 09:57:20;;;;;;;;;;;6.60;69.90;;;;;;5044233;27;87719;-37
2022/11/15 10:00:02;;;;;;;;;;;6.60;70.00;;;;;;5044355;28;87861;-37
2022/11/15 10:02:34;;;;;;;;;;;6.60;70.20;;;;;;5044896;28;86241;-37
2022/11/15 10:05:00;;;;;;;;;;;6.60;69.70;;;;;;5047000;28;86775;-38
2022/11/15 10:07:27;;;;;;;;;;;6.60;69.50;;;;;;5044346;28;87095;-37
2022/11/15 10:09:59;;;;;;;;;;;6.60;69.70;;;;;;5043505;28;88031;-37
2022/11/15 10:12:25;;;;;;;;;;;6.50;69.90;;;;;;5043986;28;88301;-38
2022/11/15 10:14:54;;;;;;;;;;;6.60;70.00;;;;;;5043889;28;87128;-38
2022/11/15 10:17:26;;;;;;;;;;;6.70;69.80;;;;;;5044170;27;87407;-38
2022/11/15 10:19:54;;;;;;;;;;;6.70;69.60;;;;;;5043965;28;87835;-38
2022/11/15 10:22:31;;;;;;;;;;;6.70;69.50;;;;;;5043850;28;87255;-38
2022/11/15 10:25:20;;;;;;;;;;;6.70;70.00;;;;;;5044063;28;87395;-37
2022/11/15 10:27:54;;;;;;;;;;;6.80;69.60;;;;;;5041124;28;87333;-38
2022/11/15 10:30:20;;;;;;;;;;;6.80;69.80;;;;;;5043927;27;87420;-37
2022/11/15 10:32:47;;;;;;;;;;;6.80;69.50;;;;;;5043448;28;87471;-37
2022/11/15 10:35:42;;;;;;;;;;;6.80;69.80;;;;;;5043258;28;88033;-38
2022/11/15 10:38:11;;;;;;;;;;;6.70;70.30;;;;;;5033974;27;89580;-37
2022/11/15 10:40:38;;;;;;;;;;;6.80;69.90;;;;;;5043554;27;88176;-37
2022/11/15 10:43:05;;;;;;;;;;;6.90;69.80;;;;;;5043730;28;86997;-37
2022/11/15 10:45:32;;;;;;;;;;;6.90;70.20;;;;;;5043279;27;87377;-37
2022/11/15 10:48:12;;;;;;;;;;;6.90;70.30;;;;;;5043179;28;88125;-37
2022/11/15 10:50:42;;;;;;;;;;;6.90;70.50;;;;;;5046621;28;86914;-37
2022/11/15 10:53:28;;;;;;;;;;;7.00;71.00;;;;;;5043726;28;87271;-38
2022/11/15 10:55:56;;;;;;;;;;;7.00;70.60;;;;;;5043590;28;87319;-38
2022/11/15 10:58:33;;;;;;;;;;;7.00;70.80;;;;;;5043458;27;87372;-38
2022/11/15 11:01:15;;;;;;;;;;;7.00;70.90;;;;;;5042184;28;90307;-37
2022/11/15 11:03:42;;;;;;;;;;;7.00;71.00;;;;;;5043347;28;86887;-38
2022/11/15 11:06:09;;;;;;;;;;;7.10;70.90;;;;;;5043158;28;87909;-38
2022/11/15 11:08:35;;;;;;;;;;;7.10;70.90;;;;;;5042930;28;88006;-38
2022/11/15 11:11:01;;;;;;;;;;;7.10;71.20;;;;;;5043339;28;87215;-38
2022/11/15 11:13:34;;;;;;;;;;;7.10;70.70;;;;;;5045995;27;87050;-38
2022/11/15 11:16:00;;;;;;;;;;;7.10;70.60;;;;;;5042939;28;87030;-38
2022/11/15 11:18:43;;;;;;;;;;;7.10;70.60;;;;;;5043622;27;89140;-37
2022/11/15 11:21:19;;;;;;;;;;;7.10;70.90;;;;;;5042650;28;89412;-37
2022/11/15 11:23:53;;;;;;;;;;;7.10;70.50;;;;;;5043001;28;87300;-37
2022/11/15 11:26:34;;;;;;;;;;;7.20;71.00;;;;;;5042423;28;88755;-37
2022/11/15 11:28:59;;;;;;;;;;;7.20;70.90;;;;;;5042801;28;87982;-37
2022/11/15 11:31:25;;;;;;;;;;;7.20;70.90;;;;;;5042867;28;87041;-38
2022/11/15 11:33:56;;;;;;;;;;;7.20;71.00;;;;;;5042877;28;87687;-38
2022/11/15 11:36:37;;;;;;;;;;;7.20;70.60;;;;;;5045687;28;87648;-38
2022/11/15 11:39:29;;;;;;;;;;;7.20;71.40;;;;;;5042957;27;87296;-38
2022/11/15 11:42:17;;;;;;;;;;;7.30;71.00;;;;;;5039717;28;87755;-38
2022/11/15 11:44:49;;;;;;;;;;;7.20;71.20;;;;;;5037190;28;86338;-38
2022/11/15 11:47:18;;;;;;;;;;;7.30;70.80;;;;;;5042989;28;86968;-38
2022/11/15 11:49:59;;;;;;;;;;;7.30;71.20;;;;;;5042542;28;88000;-38
2022/11/15 11:52:48;;;;;;;;;;;7.30;70.90;;;;;;5041674;28;88133;-38
2022/11/15 11:55:20;;;;;;;;;;;7.30;70.30;;;;;;5042849;28;88539;-37
2022/11/15 11:57:53;;;;;;;;;;;7.30;70.60;;;;;;5042211;28;88058;-37
2022/11/15 12:00:18;;;;;;;;;;;7.40;71.30;;;;;;5045549;28;86962;-37
2022/11/15 12:03:03;;;;;;;;;;;7.40;70.90;;;;;;5042030;28;89403;-37
2022/11/15 12:05:32;;;;;;;;;;;7.40;71.20;;;;;;5042273;27;87175;-37
2022/11/15 12:08:04;;;;;;;;;;;7.40;70.90;;;;;;5042453;28;87372;-37
2022/11/15 12:10:30;;;;;;;;;;;7.40;71.00;;;;;;5042560;28;87254;-37
2022/11/15 12:13:00;;;;;;;;;;;7.40;71.30;;;;;;5042479;28;87000;-37
2022/11/15 12:15:27;;;;;;;;;;;7.50;71.40;;;;;;5042204;28;87629;-37
2022/11/15 12:17:54;;;;;;;;;;;7.50;71.20;;;;;;5041392;28;89138;-37
2022/11/15 12:20:24;;;;;;;;;;;7.50;71.30;;;;;;5045281;28;87061;-38
2022/11/15 12:22:54;;;;;;;;;;;7.50;71.60;;;;;;5042076;28;88079;-38
2022/11/15 12:25:22;;;;;;;;;;;7.50;71.50;;;;;;5042302;28;87044;-38
2022/11/15 12:27:54;;;;;;;;;;;7.50;71.60;;;;;;5041966;28;87251;-37
2022/11/15 12:30:20;;;;;;;;;;;7.60;71.70;;;;;;5042150;28;87981;-37
2022/11/15 12:32:59;;;;;;;;;;;7.60;71.80;;;;;;5042346;28;87073;-38
2022/11/15 12:35:27;;;;;;;;;;;7.60;71.50;;;;;;5042756;27;86548;-38
2022/11/15 12:37:55;;;;;;;;;;;7.60;71.80;;;;;;5041862;28;89517;-38
2022/11/15 12:40:32;;;;;;;;;;;7.60;71.10;;;;;;5041965;28;87140;-38
2022/11/15 12:43:21;;;;;;;;;;;7.60;71.10;;;;;;5044012;27;88083;-38
2022/11/15 12:45:46;;;;;;;;;;;7.60;71.70;;;;;;5041482;28;86936;-38
2022/11/15 12:48:15;;;;;;;;;;;7.70;71.30;;;;;;5042086;27;87242;-37
2022/11/15 12:50:50;;;;;;;;;;;7.70;70.90;;;;;;5040065;28;90833;-37
2022/11/15 12:53:24;;;;;;;;;;;7.70;71.40;;;;;;5042060;28;87096;-38
2022/11/15 12:56:08;;;;;;;;;;;7.80;71.10;;;;;;5042438;28;87504;-38
2022/11/15 12:58:47;;;;;;;;;;;7.80;71.00;;;;;;5041731;28;87131;-38
2022/11/15 13:01:31;;;;;;;;;;;7.80;71.40;;;;;;5041972;28;86402;-38
2022/11/15 13:04:12;;;;;;;;;;;7.80;71.50;;;;;;5041858;27;87939;-38
2022/11/15 13:06:40;;;;;;;;;;;7.80;71.40;;;;;;5047558;28;87817;-38
2022/11/15 13:09:25;;;;;;;;;;;7.80;71.60;;;;;;5044517;27;88847;-38
2022/11/15 13:11:51;;;;;;;;;;;7.80;71.20;;;;;;5044769;28;89596;-37
2022/11/15 13:14:34;;;;;;;;;;;7.90;71.90;;;;;;5045374;28;87536;-38
2022/11/15 13:17:00;;;;;;;;;;;7.90;71.80;;;;;;5045101;28;87574;-38
2022/11/15 13:19:26;;;;;;;;;;;7.90;71.60;;;;;;5044983;28;87713;-38
2022/11/15 13:24:38;;;;;;;;;;;7.90;72.00;;;;;;5045140;28;86858;-38
2022/11/15 13:27:12;;;;;;;;;;;8.00;72.00;;;;;;5045048;28;87314;-38
2022/11/15 13:29:42;;;;;;;;;;;8.00;72.00;;;;;;5048125;28;86874;-38
2022/11/15 13:32:13;;;;;;;;;;;8.00;71.90;;;;;;5044421;28;89513;-38
2022/11/15 13:34:39;;;;;;;;;;;8.00;71.60;;;;;;5044033;28;88097;-37
2022/11/15 13:37:09;;;;;;;;;;;8.00;72.10;;;;;;5044935;28;88336;-38
2022/11/15 13:39:37;;;;;;;;;;;8.00;72.00;;;;;;5044379;28;88440;-38
2022/11/15 13:42:02;;;;;;;;;;;8.00;72.00;;;;;;5044643;28;87010;-38
2022/11/15 13:44:32;;;;;;;;;;;8.10;72.00;;;;;;5044684;27;87119;-38
2022/11/15 13:47:05;;;;;;;;;;;8.10;71.60;;;;;;5044413;28;87972;-38
2022/11/15 13:49:31;;;;;;;;;;;8.10;71.80;;;;;;5044572;28;87070;-38
2022/11/15 13:51:57;;;;;;;;;;;8.10;72.20;;;;;;5047884;28;87356;-38
2022/11/15 13:54:43;;;;;;;;;;;8.10;72.20;;;;;;5044490;28;87073;-38
2022/11/15 13:57:15;;;;;;;;;;;8.10;72.10;;;;;;5044339;28;88926;-38
2022/11/15 13:59:51;;;;;;;;;;;8.10;72.20;;;;;;5043351;28;88892;-38
2022/11/15 14:02:28;;;;;;;;;;;8.20;72.20;;;;;;5044698;28;87395;-38
2022/11/15 14:04:55;;;;;;;;;;;8.20;72.30;;;;;;5044319;27;87056;-38
2022/11/15 14:07:22;;;;;;;;;;;8.20;71.70;;;;;;5043996;28;88044;-38
2022/11/15 14:09:48;;;;;;;;;;;8.20;72.20;;;;;;5044469;28;86987;-38
2022/11/15 14:12:33;;;;;;;;;;;8.30;72.30;;;;;;5046679;28;87545;-38
2022/11/15 14:14:59;;;;;;;;;;;8.30;72.20;;;;;;5044311;28;87097;-38
2022/11/15 14:17:27;;;;;;;;;;;8.30;72.10;;;;;;5044097;27;87299;-38
2022/11/15 14:19:53;;;;;;;;;;;8.30;72.30;;;;;;5043781;28;88189;-38
2022/11/15 14:22:20;;;;;;;;;;;8.30;72.30;;;;;;5044090;28;87078;-38
2022/11/15 14:25:06;;;;;;;;;;;8.30;72.00;;;;;;5043469;28;87970;-38
2022/11/15 14:27:32;;;;;;;;;;;8.30;72.10;;;;;;5034939;28;87825;-38
2022/11/15 14:29:57;;;;;;;;;;;8.40;72.10;;;;;;5044170;28;87097;-38
2022/11/15 14:32:25;;;;;;;;;;;8.30;72.00;;;;;;5044210;28;86995;-38
2022/11/15 14:34:55;;;;;;;;;;;8.40;72.00;;;;;;5046520;28;89188;-38
2022/11/15 14:37:23;;;;;;;;;;;8.30;72.00;;;;;;5043652;27;89008;-38
2022/11/15 14:39:48;;;;;;;;;;;8.40;72.40;;;;;;5043529;28;88068;-38
2022/11/15 14:42:14;;;;;;;;;;;8.40;72.10;;;;;;5044293;28;86296;-38
2022/11/15 14:44:40;;;;;;;;;;;8.40;72.20;;;;;;5043601;28;87034;-38
2022/11/15 14:47:06;;;;;;;;;;;8.40;72.30;;;;;;5043518;28;88224;-38
2022/11/15 14:49:31;;;;;;;;;;;8.40;72.20;;;;;;5043275;28;88070;-38
2022/11/15 14:51:57;;;;;;;;;;;8.40;72.20;;;;;;5043583;28;87647;-38
2022/11/15 14:54:22;;;;;;;;;;;8.40;72.10;;;;;;5043205;28;88093;-38
2022/11/15 14:56:48;;;;;;;;;;;8.40;72.00;;;;;;5046500;28;87093;-38
2022/11/15 14:59:13;;;;;;;;;;;8.40;72.20;;;;;;5043256;28;87254;-38